ROT642V LRCL-LROP
Flight info
| Callsign | ROT642V |
|---|---|
| Flight time | 0h 33m |
| Altitude | 29000 |
| Route | IRLOX DCT BIVBU DCT TOSVI |
| Aircraft | A320/M-SDE3FGHIRWY/LB1 |
Departure
| Time | 2026-05-07 13:50 |
|---|---|
| Airport | Avram Iancu Cluj International Airport (LRCL) |
Arrival
| Time | 2026-05-07 14:23 |
|---|---|
| Airport | Bucharest Henri Coandă International Airport (LROP) |
| Time | Latitude | Longitude | Altitude | Speed | Heading |
|---|---|---|---|---|---|
| 2026-05-07 12:08 | 46.78361 | 23.68883 | 1043 ft | 0 kts | 176° |
| 2026-05-07 12:34 | 46.78362 | 23.68883 | 1043 ft | 0 kts | 176° |
| 2026-05-07 13:11 | 46.78363 | 23.68883 | 1043 ft | 0 kts | 176° |
| 2026-05-07 13:42 | 46.78364 | 23.68883 | 1043 ft | 1 kts | 176° |
| 2026-05-07 13:42 | 46.78388 | 23.68878 | 1043 ft | 3 kts | 164° |
| 2026-05-07 13:43 | 46.78412 | 23.68863 | 1043 ft | 3 kts | 131° |
| 2026-05-07 13:43 | 46.78420 | 23.68839 | 1043 ft | 1 kts | 86° |
| 2026-05-07 13:43 | 46.78420 | 23.68838 | 1043 ft | 1 kts | 86° |
| 2026-05-07 13:45 | 46.78421 | 23.68864 | 1043 ft | 8 kts | 86° |
| 2026-05-07 13:45 | 46.78425 | 23.68919 | 1043 ft | 3 kts | 78° |
| 2026-05-07 13:45 | 46.78451 | 23.68940 | 1043 ft | 12 kts | 5° |
| 2026-05-07 13:46 | 46.78549 | 23.68899 | 1043 ft | 14 kts | 341° |
| 2026-05-07 13:46 | 46.78636 | 23.68858 | 1043 ft | 12 kts | 344° |
| 2026-05-07 13:46 | 46.78672 | 23.68898 | 1043 ft | 5 kts | 62° |
| 2026-05-07 13:46 | 46.78705 | 23.69027 | 1043 ft | 23 kts | 74° |
| 2026-05-07 13:47 | 46.78751 | 23.69211 | 1043 ft | 13 kts | 48° |
| 2026-05-07 13:47 | 46.78809 | 23.69213 | 1043 ft | 6 kts | 345° |
| 2026-05-07 13:47 | 46.78860 | 23.69191 | 1043 ft | 12 kts | 341° |
| 2026-05-07 13:47 | 46.78923 | 23.69203 | 1043 ft | 7 kts | 51° |
| 2026-05-07 13:48 | 46.78941 | 23.69243 | 1043 ft | 2 kts | 58° |
| 2026-05-07 13:48 | 46.78964 | 23.69334 | 1043 ft | 19 kts | 71° |
| 2026-05-07 13:48 | 46.78996 | 23.69563 | 1043 ft | 17 kts | 82° |
| 2026-05-07 13:48 | 46.79013 | 23.69593 | 1043 ft | 1 kts | 320° |
| 2026-05-07 13:49 | 46.79001 | 23.69539 | 1043 ft | 17 kts | 252° |
| 2026-05-07 13:49 | 46.78938 | 23.69256 | 1043 ft | 71 kts | 252° |
| 2026-05-07 13:49 | 46.78715 | 23.68272 | 1043 ft | 135 kts | 252° |
| 2026-05-07 13:49 | 46.78441 | 23.67056 | 1277 ft | 161 kts | 251° |
| 2026-05-07 13:50 | 46.78091 | 23.65641 | 2165 ft | 164 kts | 253° |
| 2026-05-07 13:50 | 46.77738 | 23.64070 | 3175 ft | 167 kts | 248° |
| 2026-05-07 13:50 | 46.77222 | 23.61850 | 4432 ft | 187 kts | 243° |
| 2026-05-07 13:50 | 46.76669 | 23.60782 | 4829 ft | 199 kts | 214° |
| 2026-05-07 13:51 | 46.75289 | 23.60245 | 5216 ft | 223 kts | 174° |
| 2026-05-07 13:51 | 46.73704 | 23.60887 | 5658 ft | 250 kts | 162° |
| 2026-05-07 13:51 | 46.72036 | 23.61786 | 6461 ft | 259 kts | 161° |
| 2026-05-07 13:51 | 46.70351 | 23.62740 | 7355 ft | 263 kts | 161° |
| 2026-05-07 13:52 | 46.68816 | 23.63608 | 8129 ft | 267 kts | 161° |
| 2026-05-07 13:52 | 46.67066 | 23.64580 | 9031 ft | 271 kts | 161° |
| 2026-05-07 13:52 | 46.65289 | 23.65550 | 9902 ft | 275 kts | 161° |
| 2026-05-07 13:52 | 46.63450 | 23.66541 | 10444 ft | 291 kts | 161° |
| 2026-05-07 13:53 | 46.61473 | 23.67595 | 10718 ft | 314 kts | 161° |
| 2026-05-07 13:53 | 46.59375 | 23.68708 | 11266 ft | 325 kts | 161° |
| 2026-05-07 13:53 | 46.57232 | 23.69841 | 12014 ft | 330 kts | 161° |
| 2026-05-07 13:53 | 46.55062 | 23.71037 | 12747 ft | 337 kts | 156° |
| 2026-05-07 13:54 | 46.52990 | 23.72670 | 13495 ft | 342 kts | 152° |
| 2026-05-07 13:54 | 46.50916 | 23.74396 | 14194 ft | 346 kts | 152° |
| 2026-05-07 13:54 | 46.48823 | 23.76162 | 14866 ft | 349 kts | 152° |
| 2026-05-07 13:54 | 46.46715 | 23.77943 | 15531 ft | 353 kts | 152° |
| 2026-05-07 13:55 | 46.44574 | 23.79743 | 16190 ft | 357 kts | 152° |
| 2026-05-07 13:55 | 46.42504 | 23.81477 | 16823 ft | 361 kts | 153° |
| 2026-05-07 13:55 | 46.40315 | 23.83304 | 17479 ft | 364 kts | 153° |
| 2026-05-07 13:55 | 46.38105 | 23.85141 | 18129 ft | 368 kts | 153° |
| 2026-05-07 13:56 | 46.35872 | 23.86994 | 18703 ft | 372 kts | 153° |
| 2026-05-07 13:56 | 46.33612 | 23.88875 | 19241 ft | 376 kts | 153° |
| 2026-05-07 13:56 | 46.31329 | 23.90776 | 19734 ft | 382 kts | 153° |
| 2026-05-07 13:56 | 46.29003 | 23.92707 | 20244 ft | 387 kts | 153° |
| 2026-05-07 13:57 | 46.26655 | 23.94651 | 20787 ft | 391 kts | 153° |
| 2026-05-07 13:57 | 46.24281 | 23.96615 | 21333 ft | 395 kts | 153° |
| 2026-05-07 13:57 | 46.21882 | 23.98601 | 21873 ft | 400 kts | 153° |
| 2026-05-07 13:57 | 46.19454 | 24.00607 | 22398 ft | 404 kts | 153° |
| 2026-05-07 13:58 | 46.17006 | 24.02629 | 22908 ft | 408 kts | 153° |
| 2026-05-07 13:58 | 46.14526 | 24.04674 | 23431 ft | 412 kts | 153° |
| 2026-05-07 13:58 | 46.12026 | 24.06736 | 23974 ft | 417 kts | 153° |
| 2026-05-07 13:58 | 46.09495 | 24.08819 | 24482 ft | 420 kts | 153° |
| 2026-05-07 13:59 | 46.06952 | 24.10911 | 25001 ft | 423 kts | 153° |
| 2026-05-07 13:59 | 46.04382 | 24.13022 | 25490 ft | 426 kts | 154° |
| 2026-05-07 13:59 | 46.01794 | 24.15147 | 25920 ft | 429 kts | 154° |
| 2026-05-07 13:59 | 45.99250 | 24.17237 | 26301 ft | 431 kts | 154° |
| 2026-05-07 14:00 | 45.96652 | 24.19366 | 26680 ft | 433 kts | 154° |
| 2026-05-07 14:00 | 45.94019 | 24.21514 | 27071 ft | 435 kts | 154° |
| 2026-05-07 14:00 | 45.91378 | 24.23666 | 27452 ft | 438 kts | 154° |
| 2026-05-07 14:00 | 45.88720 | 24.25828 | 27816 ft | 440 kts | 154° |
| 2026-05-07 14:01 | 45.86047 | 24.28001 | 28183 ft | 443 kts | 154° |
| 2026-05-07 14:01 | 45.83357 | 24.30187 | 28523 ft | 445 kts | 154° |
| 2026-05-07 14:01 | 45.80647 | 24.32389 | 28839 ft | 450 kts | 154° |
| 2026-05-07 14:01 | 45.77952 | 24.34576 | 29005 ft | 450 kts | 155° |
| 2026-05-07 14:02 | 45.75263 | 24.36763 | 29021 ft | 441 kts | 155° |
| 2026-05-07 14:02 | 45.70182 | 24.41623 | 29022 ft | 443 kts | 143° |
| 2026-05-07 14:02 | 45.67863 | 24.44537 | 28836 ft | 443 kts | 142° |
| 2026-05-07 14:03 | 45.65548 | 24.47445 | 28565 ft | 443 kts | 142° |
| 2026-05-07 14:03 | 45.63237 | 24.50346 | 28294 ft | 442 kts | 142° |
| 2026-05-07 14:03 | 45.60931 | 24.53237 | 28025 ft | 440 kts | 142° |
| 2026-05-07 14:03 | 45.58632 | 24.56111 | 27742 ft | 438 kts | 142° |
| 2026-05-07 14:04 | 45.56360 | 24.58947 | 27167 ft | 434 kts | 142° |
| 2026-05-07 14:04 | 45.54089 | 24.61774 | 26570 ft | 431 kts | 142° |
| 2026-05-07 14:04 | 45.51832 | 24.64574 | 25992 ft | 428 kts | 142° |
| 2026-05-07 14:04 | 45.49593 | 24.67346 | 25420 ft | 425 kts | 142° |
| 2026-05-07 14:05 | 45.47364 | 24.70107 | 24875 ft | 422 kts | 142° |
| 2026-05-07 14:05 | 45.45164 | 24.72839 | 24345 ft | 419 kts | 142° |
| 2026-05-07 14:05 | 45.42975 | 24.75557 | 23827 ft | 416 kts | 142° |
| 2026-05-07 14:05 | 45.40803 | 24.78253 | 23265 ft | 413 kts | 142° |
| 2026-05-07 14:06 | 45.38642 | 24.80925 | 22772 ft | 409 kts | 142° |
| 2026-05-07 14:06 | 45.36504 | 24.83556 | 22285 ft | 405 kts | 142° |
| 2026-05-07 14:06 | 45.34384 | 24.86161 | 21801 ft | 401 kts | 141° |
| 2026-05-07 14:06 | 45.32282 | 24.88748 | 21306 ft | 398 kts | 142° |
| 2026-05-07 14:07 | 45.30201 | 24.91311 | 20807 ft | 395 kts | 142° |
| 2026-05-07 14:07 | 45.28127 | 24.93862 | 20302 ft | 392 kts | 141° |
| 2026-05-07 14:07 | 45.26074 | 24.96387 | 19795 ft | 390 kts | 141° |
| 2026-05-07 14:07 | 45.24022 | 24.98905 | 19283 ft | 388 kts | 141° |
| 2026-05-07 14:08 | 45.21980 | 25.01403 | 18763 ft | 387 kts | 141° |
| 2026-05-07 14:08 | 45.19947 | 25.03887 | 18235 ft | 385 kts | 141° |
| 2026-05-07 14:08 | 45.17923 | 25.06363 | 17683 ft | 383 kts | 141° |
| 2026-05-07 14:08 | 45.15920 | 25.08811 | 17182 ft | 379 kts | 141° |
| 2026-05-07 14:09 | 45.13927 | 25.11243 | 16679 ft | 376 kts | 141° |
| 2026-05-07 14:09 | 45.11947 | 25.13659 | 16162 ft | 374 kts | 141° |
| 2026-05-07 14:09 | 45.09986 | 25.16053 | 15664 ft | 371 kts | 141° |
| 2026-05-07 14:09 | 45.08042 | 25.18424 | 15179 ft | 368 kts | 141° |
| 2026-05-07 14:10 | 45.06106 | 25.20784 | 14691 ft | 366 kts | 141° |
| 2026-05-07 14:10 | 45.04188 | 25.23118 | 14211 ft | 363 kts | 141° |
| 2026-05-07 14:10 | 45.02277 | 25.25439 | 13704 ft | 360 kts | 141° |
| 2026-05-07 14:10 | 45.00386 | 25.27731 | 13184 ft | 357 kts | 141° |
| 2026-05-07 14:11 | 44.98538 | 25.29972 | 12699 ft | 353 kts | 141° |
| 2026-05-07 14:11 | 44.96684 | 25.32218 | 12206 ft | 349 kts | 141° |
| 2026-05-07 14:11 | 44.94848 | 25.34440 | 11716 ft | 346 kts | 141° |
| 2026-05-07 14:11 | 44.93028 | 25.36637 | 11225 ft | 343 kts | 142° |
| 2026-05-07 14:12 | 44.91224 | 25.38812 | 10736 ft | 340 kts | 142° |
| 2026-05-07 14:12 | 44.89437 | 25.40969 | 10357 ft | 334 kts | 142° |
| 2026-05-07 14:12 | 44.87708 | 25.43056 | 10231 ft | 320 kts | 142° |
| 2026-05-07 14:12 | 44.86052 | 25.45055 | 10112 ft | 307 kts | 142° |
| 2026-05-07 14:13 | 44.84458 | 25.46979 | 9971 ft | 296 kts | 142° |
| 2026-05-07 14:13 | 44.82910 | 25.48844 | 9578 ft | 293 kts | 142° |
| 2026-05-07 14:13 | 44.81360 | 25.50708 | 9208 ft | 291 kts | 142° |
| 2026-05-07 14:13 | 44.79825 | 25.52552 | 8780 ft | 290 kts | 142° |
| 2026-05-07 14:14 | 44.78298 | 25.54387 | 8221 ft | 287 kts | 142° |
| 2026-05-07 14:14 | 44.76784 | 25.56203 | 7548 ft | 285 kts | 142° |
| 2026-05-07 14:14 | 44.75289 | 25.57994 | 6995 ft | 279 kts | 142° |
| 2026-05-07 14:14 | 44.73817 | 25.59755 | 6500 ft | 276 kts | 142° |
| 2026-05-07 14:15 | 44.72343 | 25.61516 | 5994 ft | 279 kts | 141° |
| 2026-05-07 14:15 | 44.70872 | 25.63273 | 5624 ft | 276 kts | 141° |
| 2026-05-07 14:15 | 44.69408 | 25.65022 | 5181 ft | 275 kts | 141° |
| 2026-05-07 14:15 | 44.67960 | 25.66750 | 4801 ft | 272 kts | 141° |
| 2026-05-07 14:16 | 44.66525 | 25.68464 | 4420 ft | 270 kts | 141° |
| 2026-05-07 14:16 | 44.65101 | 25.70167 | 4039 ft | 267 kts | 141° |
| 2026-05-07 14:16 | 44.63692 | 25.71846 | 3563 ft | 267 kts | 140° |
| 2026-05-07 14:16 | 44.62277 | 25.73527 | 3198 ft | 264 kts | 140° |
| 2026-05-07 14:17 | 44.60903 | 25.75161 | 3037 ft | 252 kts | 141° |
| 2026-05-07 14:17 | 44.59603 | 25.76709 | 2919 ft | 240 kts | 140° |
| 2026-05-07 14:17 | 44.58358 | 25.78190 | 2815 ft | 229 kts | 140° |
| 2026-05-07 14:17 | 44.57175 | 25.79596 | 2724 ft | 218 kts | 140° |
| 2026-05-07 14:18 | 44.56041 | 25.80946 | 2633 ft | 210 kts | 137° |
| 2026-05-07 14:18 | 44.55171 | 25.82515 | 2530 ft | 201 kts | 117° |
| 2026-05-07 14:18 | 44.54768 | 25.84342 | 2493 ft | 193 kts | 98° |
| 2026-05-07 14:18 | 44.54804 | 25.86225 | 2518 ft | 193 kts | 86° |
| 2026-05-07 14:19 | 44.54951 | 25.88078 | 2504 ft | 192 kts | 85° |
| 2026-05-07 14:19 | 44.55097 | 25.89931 | 2456 ft | 193 kts | 85° |
| 2026-05-07 14:19 | 44.55240 | 25.91764 | 2321 ft | 185 kts | 87° |
| 2026-05-07 14:19 | 44.55378 | 25.93531 | 2086 ft | 179 kts | 87° |
| 2026-05-07 14:20 | 44.55509 | 25.95214 | 1867 ft | 167 kts | 88° |
| 2026-05-07 14:20 | 44.55629 | 25.96760 | 1678 ft | 152 kts | 87° |
| 2026-05-07 14:20 | 44.55737 | 25.98167 | 1511 ft | 142 kts | 86° |
| 2026-05-07 14:20 | 44.55840 | 25.99504 | 1345 ft | 136 kts | 85° |
| 2026-05-07 14:21 | 44.55940 | 26.00817 | 1202 ft | 135 kts | 86° |
| 2026-05-07 14:21 | 44.56037 | 26.02116 | 1036 ft | 133 kts | 88° |
| 2026-05-07 14:21 | 44.56139 | 26.03428 | 877 ft | 138 kts | 86° |
| 2026-05-07 14:21 | 44.56248 | 26.04754 | 761 ft | 138 kts | 85° |
| 2026-05-07 14:22 | 44.56349 | 26.06080 | 575 ft | 136 kts | 84° |
| 2026-05-07 14:22 | 44.56445 | 26.07376 | 412 ft | 132 kts | 84° |
| 2026-05-07 14:22 | 44.56537 | 26.08614 | 325 ft | 117 kts | 84° |
| 2026-05-07 14:22 | 44.56606 | 26.09522 | 316 ft | 63 kts | 84° |
| 2026-05-07 14:23 | 44.56645 | 26.10066 | 320 ft | 51 kts | 84° |
| 2026-05-07 14:23 | 44.56679 | 26.10539 | 316 ft | 40 kts | 83° |
| 2026-05-07 14:23 | 44.56688 | 26.10635 | 315 ft | 0 kts | 82° |